TAF Text Data
IDs:
Format:
Raw Decoded Include METAR

Data at: 2332 UTC 19 Apr 2021

METAR for:KRWF (Redwood Falls Muni, MN, US)
Text:KRWF 192253Z AUTO 31014G28KT 10SM CLR 05/M13 A3005 RMK AO2 PK WND 31028/2247 SLP188 T00501133
Temperature: 5.0°C ( 41°F)
Dewpoint:-13.3°C ( 8°F) [RH = 25%]
Pressure (altimeter):30.05 inches Hg (1017.7 mb) [Sea level pressure: 1018.8 mb]
Winds:from the NW (310 degrees) at 16 MPH (14 knots; 7.2 m/s) gusting to 32 MPH (28 knots; 14.4 m/s)
Visibility:10 or more sm (16+ km)
Ceiling:at least 12,000 feet AGL
Clouds:sky clear below 12,000 feet AGL
QC Flag:automated observation with no human augmentation

TAF for:KRWF (Redwood Falls Muni, MN, US) issued at 1720 UTC 19 Apr 2021
Text:KRWF 191720Z 1918/2018 33014G23KT P6SM SCT027 OVC040
Forecast period:1800 UTC 19 April 2021 to 0100 UTC 20 April 2021
Forecast type:FROM: standard forecast or significant change
Winds:from the NNW (330 degrees) at 16 MPH (14 knots; 7.2 m/s) gusting to 26 MPH (23 knots; 11.8 m/s)
Visibility:6 or more sm (10+ km)
Ceiling:4000 feet AGL
Clouds: scattered clouds at 2700 feet AGL, overcast cloud deck at 4000 feet AGL
Text:FM200100 31007KT P6SM SCT100
Forecast period:0100 to 1800 UTC 20 April 2021
Forecast type:FROM: standard forecast or significant change
Winds:from the NW (310 degrees) at 8 MPH (7 knots; 3.6 m/s)
Visibility:6 or more sm (10+ km)
Ceiling:at least 12,000 feet AGL
Clouds: scattered clouds at 10000 feet AGL